Time;durP1;ratioP1;P1;durP2;ratioP2;P2;SDS_P1;SDS_P2;PMS_P1;PMS_P2;Temp;Humidity;BMP_temperature;BMP_pressure;BME280_temperature;BME280_humidity;BME280_pressure;Samples;Min_cycle;Max_cycle;Signal;HPM_P1;HPM_P2
2023/07/16 00:01:34;;;;;;;23.98;12.88;;;;;;;29.41;52.74;100976.66;4966663;28;20061;-79
2023/07/16 00:04:01;;;;;;;22.73;12.70;;;;;;;29.44;53.11;100989.81;4970676;28;20056;-79
2023/07/16 00:06:28;;;;;;;22.05;12.63;;;;;;;29.45;54.14;100976.97;4975985;28;20050;-78
2023/07/16 00:08:55;;;;;;;22.38;13.27;;;;;;;29.23;54.08;100941.41;4954297;28;20421;-78
2023/07/16 00:11:21;;;;;;;31.58;12.77;;;;;;;29.40;53.36;100964.88;4978236;28;20489;-77
2023/07/16 00:13:48;;;;;;;21.02;12.52;;;;;;;29.39;53.51;100959.66;4972847;28;20253;-79
2023/07/16 00:16:25;;;;;;;26.73;12.90;;;;;;;29.47;53.25;100977.53;4953655;28;20152;-80
2023/07/16 00:18:53;;;;;;;17.10;11.45;;;;;;;29.52;52.08;100989.38;4975258;28;20285;-78
2023/07/16 00:21:22;;;;;;;18.80;11.13;;;;;;;29.48;50.39;100998.34;4969025;28;20076;-79
2023/07/16 00:23:49;;;;;;;16.50;9.50;;;;;;;29.34;49.44;100986.94;4982144;28;20131;-78
2023/07/16 00:26:16;;;;;;;22.58;10.02;;;;;;;29.07;48.95;100960.31;4963590;28;20111;-79
2023/07/16 00:28:43;;;;;;;18.65;10.20;;;;;;;29.10;49.15;100981.66;4970317;28;20085;-79
2023/07/16 00:31:10;;;;;;;20.60;10.52;;;;;;;29.19;50.36;100991.09;4972073;28;20071;-79
2023/07/16 00:33:40;;;;;;;15.55;9.77;;;;;;;29.29;49.26;100995.91;4983843;28;20045;-78
2023/07/16 00:36:06;;;;;;;15.85;9.82;;;;;;;29.37;49.90;100987.28;4955660;28;20050;-79
2023/07/16 00:38:33;;;;;;;16.42;9.75;;;;;;;29.43;48.06;100988.16;4964979;28;20046;-80
2023/07/16 00:41:03;;;;;;;18.88;10.10;;;;;;;29.53;48.13;100991.03;4976315;28;20773;-78
2023/07/16 00:43:35;;;;;;;14.32;10.05;;;;;;;29.39;47.53;100960.47;4974643;28;20201;-78
2023/07/16 00:46:05;;;;;;;15.70;9.38;;;;;;;29.55;47.14;100988.06;4999992;28;20315;-78
2023/07/16 00:48:32;;;;;;;13.88;9.13;;;;;;;29.36;48.00;100962.91;4958565;28;20079;-81
2023/07/16 00:51:01;;;;;;;19.08;9.60;;;;;;;29.59;47.85;101006.44;4950418;28;20133;-80
2023/07/16 00:53:29;;;;;;;19.85;10.13;;;;;;;29.72;47.85;100996.22;4957474;28;20483;-79
2023/07/16 00:55:55;;;;;;;18.58;9.38;;;;;;;29.92;45.86;100996.47;4936245;28;20498;-79
2023/07/16 00:58:26;;;;;;;15.07;9.85;;;;;;;30.15;45.93;101008.25;4970234;28;20548;-79
2023/07/16 01:00:58;;;;;;;15.52;9.30;;;;;;;29.96;46.61;101005.81;4965918;28;20140;-79
2023/07/16 01:03:28;;;;;;;17.15;9.73;;;;;;;29.75;46.98;100954.69;4962322;28;20060;-79
2023/07/16 01:06:02;;;;;;;24.88;10.52;;;;;;;30.07;45.88;100997.72;4976167;28;20493;-79
2023/07/16 01:08:41;;;;;;;16.05;9.38;;;;;;;29.99;48.67;100994.38;4956885;28;20058;-80
2023/07/16 01:11:10;;;;;;;19.52;10.10;;;;;;;30.12;47.16;100989.56;4957764;28;20344;-80
2023/07/16 01:13:41;;;;;;;21.65;10.15;;;;;;;30.14;47.24;100984.66;4943453;28;20051;-79
2023/07/16 01:16:24;;;;;;;17.48;8.52;;;;;;;29.15;46.39;100847.84;4950006;28;20198;-79
2023/07/16 01:18:52;;;;;;;13.98;9.80;;;;;;;29.93;47.73;100995.41;4963931;28;20268;-78
2023/07/16 01:21:28;;;;;;;18.48;10.38;;;;;;;29.88;48.08;100998.09;4944232;28;20050;-79
2023/07/16 01:24:16;;;;;;;17.70;11.82;;;;;;;29.89;49.51;100998.91;4963897;28;20560;-79
2023/07/16 01:27:14;;;;;;;19.55;11.70;;;;;;;29.49;49.90;100957.09;4966390;28;20390;-79
2023/07/16 01:29:52;;;;;;;14.60;10.13;;;;;;;29.59;49.89;100984.56;4982892;28;20109;-79
2023/07/16 01:32:23;;;;;;;18.30;10.40;;;;;;;29.51;48.16;100976.78;5002493;28;20057;-78
2023/07/16 01:34:54;;;;;;;17.50;10.45;;;;;;;29.42;47.83;100977.47;4960669;28;20156;-79
2023/07/16 01:37:21;;;;;;;10.85;9.30;;;;;;;29.41;48.00;101001.25;4948852;28;20120;-79
2023/07/16 01:39:48;;;;;;;23.25;9.45;;;;;;;29.24;47.26;100973.13;4956788;28;20053;-79
2023/07/16 01:42:15;;;;;;;13.70;9.00;;;;;;;29.12;47.76;100979.53;4953555;28;20171;-79
2023/07/16 01:44:42;;;;;;;16.83;8.93;;;;;;;29.34;47.73;100992.41;4949045;28;20046;-78
2023/07/16 01:47:12;;;;;;;14.57;9.07;;;;;;;28.52;47.20;100870.94;4954899;28;20046;-78
2023/07/16 01:49:39;;;;;;;15.20;9.30;;;;;;;29.17;47.25;100993.25;4953394;28;20049;-79
2023/07/16 01:52:07;;;;;;;17.10;9.77;;;;;;;29.10;47.40;101002.72;4968913;28;20046;-80
2023/07/16 01:54:34;;;;;;;14.73;9.35;;;;;;;28.60;46.98;100921.59;4944326;28;20369;-78
2023/07/16 01:57:01;;;;;;;13.02;8.68;;;;;;;28.89;47.39;100993.38;4948667;28;20050;-77
2023/07/16 01:59:27;;;;;;;18.10;9.48;;;;;;;28.71;47.85;100978.84;4964768;28;20222;-79
2023/07/16 02:01:54;;;;;;;17.75;8.32;;;;;;;28.66;47.50;100962.38;4951175;28;20050;-78
2023/07/16 02:04:21;;;;;;;13.38;9.05;;;;;;;28.76;47.61;100987.16;4970900;28;20100;-79
2023/07/16 02:06:48;;;;;;;14.63;8.27;;;;;;;28.74;47.22;100988.44;4969432;28;20319;-80
2023/07/16 02:09:15;;;;;;;14.10;8.48;;;;;;;28.82;47.18;100989.97;4973679;28;20093;-79
2023/07/16 02:11:41;;;;;;;15.73;9.13;;;;;;;28.82;47.02;100977.13;4966473;28;20042;-79
2023/07/16 02:14:09;;;;;;;13.35;8.10;;;;;;;28.75;46.87;100966.34;4972436;28;20055;-78
2023/07/16 02:16:35;;;;;;;17.23;8.85;;;;;;;28.59;46.56;100937.13;4949396;28;20047;-78
2023/07/16 02:19:02;;;;;;;12.77;8.23;;;;;;;28.77;47.02;100983.34;4946732;28;20051;-77
2023/07/16 02:21:29;;;;;;;12.35;9.23;;;;;;;28.79;48.43;100980.38;4947015;28;20121;-78
2023/07/16 02:23:56;;;;;;;17.60;9.50;;;;;;;28.44;48.67;100945.88;4944146;28;20047;-79
2023/07/16 02:26:23;;;;;;;20.33;9.90;;;;;;;28.55;48.29;100964.13;4945366;28;20054;-78
2023/07/16 02:28:50;;;;;;;18.02;9.25;;;;;;;28.69;48.87;100991.94;4945626;28;20441;-79
2023/07/16 02:31:17;;;;;;;19.85;9.43;;;;;;;28.63;48.78;100987.47;4949674;28;20102;-79
2023/07/16 02:33:44;;;;;;;26.13;9.85;;;;;;;28.38;48.71;100951.50;4944417;28;20074;-79
2023/07/16 02:36:18;;;;;;;18.88;9.13;;;;;;;28.48;48.67;100979.84;4917594;28;20049;-79
2023/07/16 02:38:52;;;;;;;14.57;9.00;;;;;;;28.47;48.87;100980.94;4912399;28;20047;-79
2023/07/16 02:41:20;;;;;;;14.10;9.30;;;;;;;28.57;48.78;100998.53;4903367;28;20387;-78
2023/07/16 02:43:47;;;;;;;17.35;9.93;;;;;;;28.51;49.38;100997.63;4920840;28;20427;-79
2023/07/16 02:46:15;;;;;;;16.73;10.30;;;;;;;27.97;49.62;100913.38;4939091;28;20109;-80
2023/07/16 02:48:42;;;;;;;18.60;10.35;;;;;;;28.45;50.03;100993.09;4954257;28;20046;-79
2023/07/16 02:51:09;;;;;;;26.95;10.52;;;;;;;28.41;50.31;100990.06;4961454;28;20368;-78
2023/07/16 02:53:36;;;;;;;16.77;10.57;;;;;;;28.36;50.26;100964.56;4954733;28;20053;-77
2023/07/16 02:56:03;;;;;;;15.38;10.73;;;;;;;28.37;49.78;100960.75;4960033;28;20414;-79
2023/07/16 02:58:35;;;;;;;15.85;10.15;;;;;;;28.23;50.30;100947.44;4924222;28;20422;-79
2023/07/16 03:01:04;;;;;;;24.60;10.40;;;;;;;28.26;50.04;100946.94;4959816;28;20506;-79
2023/07/16 03:03:31;;;;;;;13.70;9.80;;;;;;;28.60;49.92;101007.09;4955845;28;20050;-78
2023/07/16 03:06:02;;;;;;;16.87;10.73;;;;;;;28.55;49.92;101001.53;4948729;28;20046;-78
2023/07/16 03:08:29;;;;;;;19.75;10.07;;;;;;;28.45;49.81;100995.84;4932945;28;20512;-79
2023/07/16 03:10:57;;;;;;;22.02;9.88;;;;;;;28.51;50.13;101005.81;4937260;28;20345;-79
2023/07/16 03:13:24;;;;;;;17.20;9.63;;;;;;;28.50;49.22;101005.00;4932371;28;20133;-77
2023/07/16 03:15:54;;;;;;;15.40;10.55;;;;;;;28.52;50.03;101000.13;4948863;28;20357;-79
2023/07/16 03:18:30;;;;;;;18.92;9.90;;;;;;;28.58;48.71;101006.50;4953700;28;20073;-77
2023/07/16 03:20:58;;;;;;;12.82;9.77;;;;;;;28.52;48.85;101007.47;4953278;28;20046;-80
2023/07/16 03:23:26;;;;;;;20.38;9.40;;;;;;;28.50;48.79;101015.09;4965883;28;20457;-79
2023/07/16 03:25:55;;;;;;;11.60;8.90;;;;;;;28.44;48.25;100994.19;4955833;28;20454;-80
2023/07/16 03:28:22;;;;;;;13.07;9.30;;;;;;;28.48;48.09;101006.31;4958939;28;20369;-78
2023/07/16 03:30:50;;;;;;;22.30;10.27;;;;;;;28.07;48.41;100945.50;4961119;28;20062;-78
2023/07/16 03:33:17;;;;;;;19.92;9.85;;;;;;;28.30;47.98;100994.50;4949711;28;20558;-78
2023/07/16 03:35:46;;;;;;;17.20;9.55;;;;;;;28.38;48.30;101017.03;4958461;28;20046;-78
2023/07/16 03:38:13;;;;;;;15.27;9.45;;;;;;;28.24;48.32;101006.41;4934775;28;20046;-79
2023/07/16 03:40:42;;;;;;;17.92;9.65;;;;;;;27.97;48.44;100962.50;4941818;28;20132;-79
2023/07/16 03:43:09;;;;;;;14.20;8.45;;;;;;;28.22;48.04;101014.00;4937345;28;20047;-79
2023/07/16 03:45:36;;;;;;;13.85;9.07;;;;;;;28.21;47.85;101028.72;4958604;28;20763;-78
2023/07/16 03:48:03;;;;;;;16.13;8.90;;;;;;;28.20;47.69;101021.59;4959572;28;20534;-79
2023/07/16 03:50:30;;;;;;;13.43;8.90;;;;;;;28.20;48.32;101027.06;4966982;28;20727;-79
2023/07/16 03:52:57;;;;;;;16.75;9.13;;;;;;;28.11;48.21;101017.63;4956940;28;20057;-78
2023/07/16 03:55:24;;;;;;;18.23;8.48;;;;;;;28.05;48.41;101018.56;4964171;28;20042;-79
2023/07/16 03:57:51;;;;;;;11.45;8.70;;;;;;;27.56;48.38;100944.47;4956246;28;20057;-79
2023/07/16 04:00:18;;;;;;;11.82;8.90;;;;;;;27.86;48.57;100999.66;4965131;28;20109;-79
2023/07/16 04:02:45;;;;;;;11.10;8.30;;;;;;;28.03;48.47;101026.19;4953893;28;20054;-79
2023/07/16 04:05:12;;;;;;;18.52;10.05;;;;;;;27.95;48.49;101012.91;4953597;28;20433;-78
2023/07/16 04:07:39;;;;;;;13.82;8.40;;;;;;;27.56;48.91;100969.00;4973989;28;20505;-79
2023/07/16 04:10:06;;;;;;;17.90;9.70;;;;;;;27.91;49.03;101024.31;4981879;28;20465;-79
2023/07/16 04:12:33;;;;;;;17.92;9.93;;;;;;;27.61;49.27;100986.28;4959720;28;20518;-78
2023/07/16 04:14:59;;;;;;;17.60;10.55;;;;;;;27.76;49.23;101010.31;4948315;28;20085;-78
2023/07/16 04:17:27;;;;;;;15.80;9.70;;;;;;;27.73;49.23;101010.81;4940539;28;20498;-78
2023/07/16 04:19:54;;;;;;;20.60;9.55;;;;;;;27.71;49.30;101015.66;4944108;28;20437;-77
2023/07/16 04:22:21;;;;;;;12.15;9.25;;;;;;;27.63;49.41;101002.41;4940769;28;20301;-79
2023/07/16 04:24:48;;;;;;;17.73;9.73;;;;;;;27.81;49.43;101024.06;4931994;28;20493;-79
2023/07/16 04:27:14;;;;;;;20.70;9.52;;;;;;;27.96;49.42;101044.59;4939077;28;20057;-77
2023/07/16 04:29:41;;;;;;;18.75;10.60;;;;;;;27.78;49.11;101013.63;4928608;28;20084;-78
2023/07/16 04:32:08;;;;;;;26.80;10.43;;;;;;;27.95;49.50;101043.75;4916947;28;20160;-78
2023/07/16 04:34:35;;;;;;;16.20;9.43;;;;;;;27.90;49.81;101038.19;4967764;28;20132;-79
2023/07/16 04:37:05;;;;;;;15.80;9.18;;;;;;;28.04;50.09;101055.13;4970058;28;20136;-78
2023/07/16 04:39:32;;;;;;;16.73;9.85;;;;;;;28.07;49.96;101057.38;4944904;28;20077;-79
2023/07/16 04:42:04;;;;;;;19.40;8.90;;;;;;;28.15;52.11;101050.69;4967127;28;20703;-79
2023/07/16 04:44:39;;;;;;;15.40;8.75;;;;;;;28.25;52.45;101035.34;4933260;28;20074;-79
2023/07/16 04:47:06;;;;;;;17.42;9.50;;;;;;;28.45;51.85;101034.06;4934988;28;20557;-80
2023/07/16 04:49:36;;;;;;;14.27;9.50;;;;;;;28.54;52.63;101021.72;4944119;28;20337;-80
2023/07/16 04:52:06;;;;;;;21.60;9.93;;;;;;;28.47;50.63;101010.09;4908781;28;20058;-80
2023/07/16 04:54:38;;;;;;;13.75;9.43;;;;;;;28.74;49.92;101054.88;4912985;28;20098;-79
2023/07/16 04:57:06;;;;;;;15.10;9.73;;;;;;;28.77;52.53;101048.91;4914803;28;20043;-79
2023/07/16 04:59:35;;;;;;;18.47;10.07;;;;;;;28.99;51.87;101053.63;4939320;28;20280;-79
2023/07/16 05:02:06;;;;;;;18.38;9.85;;;;;;;29.09;51.69;101059.28;4933121;28;20090;-80
2023/07/16 05:04:34;;;;;;;15.70;9.98;;;;;;;28.82;51.15;101028.22;4972154;28;20042;-79
2023/07/16 05:07:02;;;;;;;13.73;9.65;;;;;;;28.69;50.49;101034.81;4977980;28;20486;-79
2023/07/16 05:09:30;;;;;;;28.63;13.60;;;;;;;28.75;50.93;101061.16;4950176;28;20078;-80
2023/07/16 05:11:58;;;;;;;18.63;10.90;;;;;;;28.63;51.07;101052.19;4949704;28;20927;-79
2023/07/16 05:14:27;;;;;;;15.77;9.82;;;;;;;28.61;51.14;101060.63;4956786;28;20046;-78
2023/07/16 05:16:54;;;;;;;18.58;10.88;;;;;;;28.24;52.15;101006.41;4947556;28;20553;-79
2023/07/16 05:19:21;;;;;;;15.77;9.95;;;;;;;28.64;51.42;101064.75;4955136;28;20080;-79
2023/07/16 05:21:47;;;;;;;15.68;9.90;;;;;;;28.88;52.76;101063.56;4969064;28;20058;-79
2023/07/16 05:24:15;;;;;;;18.77;10.50;;;;;;;28.74;51.50;101048.53;4971941;28;20502;-80
2023/07/16 05:26:42;;;;;;;15.82;9.35;;;;;;;29.03;53.94;101057.53;4967416;28;20133;-80
2023/07/16 05:29:09;;;;;;;15.57;9.60;;;;;;;29.14;52.87;101059.38;4980486;28;20056;-79
2023/07/16 05:31:39;;;;;;;14.73;10.15;;;;;;;29.13;53.79;101022.19;4976656;28;20990;-78
2023/07/16 05:34:07;;;;;;;19.00;10.57;;;;;;;29.36;52.08;101044.94;4967921;28;20046;-79
2023/07/16 05:36:34;;;;;;;19.67;9.98;;;;;;;29.53;53.06;101061.31;4973212;28;20926;-79
2023/07/16 05:39:01;;;;;;;19.60;10.25;;;;;;;29.35;51.46;101021.44;4989794;28;20068;-79
2023/07/16 05:41:34;;;;;;;18.13;11.02;;;;;;;29.21;50.82;101020.94;4973758;28;20076;-79
2023/07/16 05:44:01;;;;;;;14.88;11.15;;;;;;;29.03;50.47;101002.88;4966338;28;20061;-80
2023/07/16 05:46:30;;;;;;;16.88;10.93;;;;;;;29.32;51.11;101063.78;4960028;28;20058;-79
2023/07/16 05:48:57;;;;;;;16.88;10.43;;;;;;;29.19;51.77;101034.84;4965988;28;20333;-80
2023/07/16 05:51:26;;;;;;;14.45;9.70;;;;;;;29.43;52.18;101058.44;4970192;28;20069;-79
2023/07/16 05:53:53;;;;;;;20.35;10.20;;;;;;;29.48;51.35;101064.81;4936085;28;20046;-79
2023/07/16 05:56:19;;;;;;;16.35;9.90;;;;;;;29.27;50.53;101019.09;4969663;28;20059;-79
2023/07/16 05:58:46;;;;;;;14.32;9.98;;;;;;;29.54;50.89;101072.03;4962921;28;20272;-79
2023/07/16 06:01:16;;;;;;;20.50;11.00;;;;;;;29.49;51.14;101049.22;4957075;28;20101;-78
2023/07/16 06:03:45;;;;;;;11.40;8.80;;;;;;;28.92;52.63;100930.81;4968964;28;20064;-79
2023/07/16 06:06:12;;;;;;;12.57;8.98;;;;;;;29.15;51.70;100979.03;4968480;28;20056;-79
2023/07/16 06:08:38;;;;;;;17.85;8.68;;;;;;;29.66;50.51;101065.59;4964119;28;20055;-80
2023/07/16 06:11:05;;;;;;;21.10;9.38;;;;;;;29.71;49.64;101082.13;4939359;28;20043;-80
2023/07/16 06:13:32;;;;;;;17.95;9.13;;;;;;;29.60;49.31;101071.00;4928281;28;20471;-79
2023/07/16 06:15:59;;;;;;;21.95;9.90;;;;;;;29.78;49.30;101074.56;4939859;28;20047;-79
2023/07/16 06:18:26;;;;;;;16.23;9.52;;;;;;;29.74;49.09;101073.41;4923764;28;20479;-79
2023/07/16 06:20:55;;;;;;;19.35;8.75;;;;;;;29.72;48.41;101081.03;4905255;28;20565;-80
2023/07/16 06:23:22;;;;;;;17.67;8.77;;;;;;;29.76;48.41;101084.91;4910593;28;20042;-79
2023/07/16 06:25:56;;;;;;;13.93;10.05;;;;;;;29.59;48.96;101054.84;4909113;28;20553;-79
2023/07/16 06:28:26;;;;;;;;;;;;;;;29.73;48.97;101082.69;4916738;28;20391;-80
2023/07/16 06:30:53;;;;;;;15.00;9.10;;;;;;;29.98;50.67;101085.78;4926919;28;20341;-79
2023/07/16 06:33:20;;;;;;;15.23;9.07;;;;;;;29.96;48.62;101087.13;4945638;28;20056;-79
2023/07/16 06:35:47;;;;;;;23.17;9.43;;;;;;;29.73;48.69;101044.38;4925303;28;20642;-79
2023/07/16 06:38:14;;;;;;;17.42;10.07;;;;;;;29.89;48.93;101067.31;4943884;28;20314;-79
2023/07/16 06:40:53;;;;;;;12.85;8.85;;;;;;;30.15;49.99;101073.94;4943814;28;20085;-79
2023/07/16 06:43:23;;;;;;;11.27;8.27;;;;;;;30.24;51.05;101069.66;4944966;28;20531;-80
2023/07/16 06:45:51;;;;;;;16.88;9.60;;;;;;;29.88;50.43;101009.03;4923955;28;20056;-79
2023/07/16 06:48:20;;;;;;;11.85;9.32;;;;;;;29.83;48.96;101006.19;4937564;28;20060;-79
2023/07/16 06:50:52;;;;;;;13.13;8.63;;;;;;;30.35;50.04;101079.66;4916074;28;20101;-79
2023/07/16 06:53:19;;;;;;;10.02;8.90;;;;;;;30.66;50.07;101074.53;4927834;28;20097;-80
2023/07/16 06:55:51;;;;;;;17.75;9.60;;;;;;;30.29;49.17;101036.06;4919888;28;20046;-79
2023/07/16 06:58:19;;;;;;;14.13;8.57;;;;;;;30.56;50.54;101057.97;4926128;28;20235;-79
2023/07/16 07:00:45;;;;;;;15.02;9.13;;;;;;;30.37;50.75;101039.16;4927721;28;20534;-80
2023/07/16 07:03:12;;;;;;;12.48;8.90;;;;;;;30.62;50.88;101057.75;4925023;28;20342;-79
2023/07/16 07:05:42;;;;;;;14.85;9.20;;;;;;;30.55;50.58;101039.88;4925243;28;20174;-80
2023/07/16 07:08:15;;;;;;;18.13;10.15;;;;;;;30.37;49.08;101038.34;4957082;28;20054;-81
2023/07/16 07:10:49;;;;;;;12.40;9.65;;;;;;;30.45;48.92;101057.03;4961354;28;20056;-79
2023/07/16 07:13:19;;;;;;;17.33;10.00;;;;;;;30.43;48.80;101043.59;4955906;28;20259;-81
2023/07/16 07:15:46;;;;;;;21.75;10.98;;;;;;;30.31;48.92;101012.78;4946662;28;20129;-79
2023/07/16 07:18:13;;;;;;;15.10;10.43;;;;;;;30.50;49.36;101037.09;4934496;28;20049;-80
2023/07/16 07:20:40;;;;;;;21.90;10.13;;;;;;;30.70;48.57;101069.34;4942751;28;20237;-79
2023/07/16 07:23:07;;;;;;;17.58;10.35;;;;;;;30.64;49.12;101043.81;4946538;28;20309;-81
2023/07/16 07:25:42;;;;;;;20.67;9.55;;;;;;;31.15;49.10;101060.72;4941726;28;20073;-82
2023/07/16 07:28:09;;;;;;;17.33;9.60;;;;;;;30.64;49.24;101010.94;4943735;28;20080;-81
2023/07/16 07:30:36;;;;;;;18.60;9.82;;;;;;;30.53;49.68;101022.88;4921837;28;20419;-77
2023/07/16 07:33:03;;;;;;;11.65;8.63;;;;;;;30.87;50.12;101035.25;4931218;28;20139;-79
2023/07/16 07:35:30;;;;;;;19.05;9.40;;;;;;;31.12;49.38;101053.03;4916831;28;20050;-77
2023/07/16 07:38:02;;;;;;;12.80;8.98;;;;;;;31.00;49.78;101033.19;4942957;28;20054;-78
2023/07/16 07:40:29;;;;;;;15.38;8.88;;;;;;;31.14;49.16;101037.09;4949624;28;20556;-80
2023/07/16 07:42:56;;;;;;;21.45;10.18;;;;;;;30.41;48.72;100938.94;4947076;28;20429;-80
2023/07/16 07:45:28;;;;;;;16.67;9.60;;;;;;;31.08;48.76;101051.88;4949999;28;20057;-80
2023/07/16 07:47:55;;;;;;;18.17;9.98;;;;;;;30.08;49.34;100878.94;4946543;28;20070;-81
2023/07/16 07:50:23;;;;;;;14.40;9.25;;;;;;;30.87;48.94;101015.25;4943066;28;20066;-81
2023/07/16 07:52:50;;;;;;;19.08;11.20;;;;;;;30.80;48.49;101059.31;4947258;28;20058;-81
2023/07/16 07:55:22;;;;;;;22.98;10.40;;;;;;;30.78;49.22;101050.53;4946115;28;20078;-81
2023/07/16 07:57:50;;;;;;;16.05;10.50;;;;;;;30.84;49.43;101054.16;4948705;28;20039;-82
2023/07/16 08:00:21;;;;;;;20.00;10.27;;;;;;;30.68;49.47;101012.03;4920314;28;20058;-83
2023/07/16 08:02:52;;;;;;;14.70;9.60;;;;;;;30.86;49.70;101032.81;4927413;28;20062;-82
2023/07/16 08:05:24;;;;;;;29.48;11.55;;;;;;;31.05;49.42;101055.97;4922528;28;20482;-81
2023/07/16 08:08:04;;;;;;;14.98;10.05;;;;;;;31.08;48.19;101054.63;4938236;28;20452;-80
2023/07/16 08:10:37;;;;;;;18.23;10.15;;;;;;;31.49;48.63;101060.44;4916898;28;20129;-81
2023/07/16 08:13:06;;;;;;;16.90;10.32;;;;;;;31.51;48.07;101058.25;4927139;28;20046;-81
2023/07/16 08:15:33;;;;;;;16.30;10.25;;;;;;;31.35;48.32;101048.22;4912568;28;20594;-80
2023/07/16 08:18:02;;;;;;;12.77;9.13;;;;;;;31.55;48.86;101064.03;4938933;28;20692;-81
2023/07/16 08:20:29;;;;;;;14.68;9.48;;;;;;;31.51;48.49;101063.75;4949986;28;20144;-81
2023/07/16 08:22:56;;;;;;;13.27;9.38;;;;;;;31.35;48.64;101059.22;4900634;28;20283;-81
2023/07/16 08:25:27;;;;;;;16.67;10.38;;;;;;;31.24;48.99;101072.84;4906591;28;20069;-82
2023/07/16 08:28:05;;;;;;;18.27;8.85;;;;;;;31.11;49.55;101073.28;4894057;28;20136;-81
2023/07/16 08:30:33;;;;;;;13.10;9.10;;;;;;;31.37;49.01;101073.50;4927794;28;20088;-81
2023/07/16 08:33:09;;;;;;;21.40;11.48;;;;;;;31.23;47.70;101078.59;4918341;28;20048;-81
2023/07/16 08:35:36;;;;;;;17.02;11.82;;;;;;;31.22;48.98;101053.09;4957662;28;20137;-82
2023/07/16 08:38:03;;;;;;;20.10;9.60;;;;;;;31.20;48.57;101068.16;4949063;28;20077;-81
2023/07/16 08:40:31;;;;;;;16.33;9.88;;;;;;;31.39;48.66;101082.28;4958162;28;20295;-82
2023/07/16 08:42:59;;;;;;;17.15;10.45;;;;;;;31.25;49.03;101081.91;4951890;28;20104;-80
2023/07/16 08:45:29;;;;;;;13.82;10.18;;;;;;;31.04;48.40;101039.78;4951151;28;20062;-83
2023/07/16 08:47:56;;;;;;;17.90;9.30;;;;;;;31.42;48.38;101035.97;4964653;28;20042;-81
2023/07/16 08:50:26;;;;;;;12.13;8.82;;;;;;;31.71;48.10;101083.06;4973548;28;20058;-82
2023/07/16 08:52:57;;;;;;;14.98;9.27;;;;;;;31.76;48.16;101086.94;4945113;28;20049;-81
2023/07/16 08:55:27;;;;;;;13.32;8.95;;;;;;;31.46;48.18;101058.22;4944374;28;20042;-81
2023/07/16 08:57:54;;;;;;;17.77;12.82;;;;;;;31.73;46.68;101099.25;4921947;28;20517;-81
2023/07/16 09:00:30;;;;;;;22.77;11.40;;;;;;;31.76;46.69;101081.44;4919914;28;20086;-82
2023/07/16 09:02:56;;;;;;;15.90;11.18;;;;;;;31.43;46.76;101003.88;4944822;28;20057;-82
2023/07/16 09:05:24;;;;;;;33.42;11.45;;;;;;;31.23;47.28;100979.88;4924726;28;20097;-82
2023/07/16 09:08:07;;;;;;;26.48;13.23;;;;;;;31.88;45.61;101073.81;4947268;28;20054;-82
2023/07/16 09:10:35;;;;;;;21.25;11.32;;;;;;;32.00;44.49;101037.94;4941958;28;20138;-81
2023/07/16 09:13:02;;;;;;;21.17;11.25;;;;;;;32.29;45.27;101082.22;4938875;28;20229;-82
2023/07/16 09:15:29;;;;;;;14.65;10.27;;;;;;;32.40;45.91;101086.63;4959379;28;20057;-81
2023/07/16 09:17:56;;;;;;;12.68;9.23;;;;;;;32.31;45.98;101071.81;4987205;28;20056;-79
2023/07/16 09:20:24;;;;;;;16.17;9.88;;;;;;;31.58;46.46;101003.13;4965666;28;20053;-81
2023/07/16 09:22:55;;;;;;;14.70;9.38;;;;;;;32.46;46.21;101096.56;4967003;28;20053;-81
2023/07/16 09:25:27;;;;;;;15.73;9.73;;;;;;;31.64;46.76;101019.34;4994778;28;20622;-82
2023/07/16 09:28:03;;;;;;;13.90;9.90;;;;;;;31.78;44.77;101051.81;4975925;28;20242;-79
2023/07/16 09:30:33;;;;;;;16.02;9.63;;;;;;;31.26;47.66;101023.22;4929883;28;20078;-82
2023/07/16 09:33:25;;;;;;;22.23;11.32;;;;;;;31.70;46.72;101053.97;4914175;28;20050;-83
2023/07/16 09:35:53;;;;;;;15.80;9.57;;;;;;;32.10;46.60;101065.41;4924912;28;20054;-82
2023/07/16 09:38:20;;;;;;;18.50;10.10;;;;;;;31.84;46.26;101072.69;4951684;28;20049;-81
2023/07/16 09:40:47;;;;;;;14.40;9.00;;;;;;;32.02;45.49;101085.97;4952535;28;20104;-81
2023/07/16 09:43:15;;;;;;;19.90;10.38;;;;;;;32.39;44.93;101084.19;4976738;28;20042;-79
2023/07/16 09:45:42;;;;;;;17.10;9.75;;;;;;;32.22;44.85;101007.50;4955116;28;20049;-81
2023/07/16 09:48:11;;;;;;;14.52;8.40;;;;;;;32.46;42.93;101074.59;4970221;28;20062;-80
2023/07/16 09:50:41;;;;;;;14.07;8.88;;;;;;;31.60;44.91;100952.38;4957065;28;20127;-81
2023/07/16 09:53:08;;;;;;;13.53;9.00;;;;;;;32.12;44.54;101086.03;4959436;28;20422;-80
2023/07/16 09:55:37;;;;;;;17.13;9.15;;;;;;;32.08;42.52;101087.63;4969264;28;20309;-79
2023/07/16 09:58:12;;;;;;;16.88;9.18;;;;;;;31.67;44.84;100994.09;4970315;28;20339;-80
2023/07/16 10:00:40;;;;;;;9.88;7.80;;;;;;;31.66;41.74;100959.53;4957589;28;20508;-80
2023/07/16 10:03:08;;;;;;;14.35;9.40;;;;;;;32.63;41.15;101051.56;4963816;28;20691;-81
2023/07/16 10:05:41;;;;;;;;;;;;;;;32.87;39.98;101080.16;4950225;28;20220;-80
2023/07/16 10:08:19;;;;;;;13.90;9.38;;;;;;;33.07;42.84;101078.53;4966732;28;19921;-80
2023/07/16 10:10:59;;;;;;;19.92;9.30;;;;;;;32.99;40.02;101063.41;4968544;28;20898;-80
2023/07/16 10:13:28;;;;;;;14.75;9.63;;;;;;;32.75;42.23;101005.38;4951812;28;20445;-80
2023/07/16 10:15:58;;;;;;;10.18;8.07;;;;;;;33.13;41.88;101080.19;4933213;28;20054;-81
2023/07/16 10:18:27;;;;;;;;;;;;;;;33.27;42.59;101078.50;4930923;28;20054;-79
2023/07/16 10:21:07;;;;;;;18.90;8.23;;;;;;;32.94;39.32;101031.22;4937019;28;19980;-81
2023/07/16 10:23:44;;;;;;;12.63;8.18;;;;;;;33.05;40.17;101047.75;4925551;28;20038;-80
2023/07/16 10:26:14;;;;;;;14.60;7.97;;;;;;;32.88;41.78;100982.81;4927723;28;20053;-81
2023/07/16 10:28:46;;;;;;;16.55;8.40;;;;;;;33.42;40.11;101070.25;4936663;28;20046;-81
2023/07/16 10:31:26;;;;;;;14.32;9.27;;;;;;;33.84;38.38;101071.81;4959110;28;20058;-83
2023/07/16 10:34:04;;;;;;;14.17;9.00;;;;;;;33.84;39.41;101043.47;4950757;28;20173;-81
2023/07/16 10:36:44;;;;;;;18.48;8.57;;;;;;;34.08;40.03;101059.31;4962709;28;20077;-80
2023/07/16 10:39:12;;;;;;;17.25;8.57;;;;;;;34.06;39.04;101062.34;4952988;28;20244;-79
2023/07/16 10:41:39;;;;;;;18.48;8.45;;;;;;;34.00;38.91;101041.44;4951865;28;20050;-80
2023/07/16 10:44:17;;;;;;;18.73;8.25;;;;;;;34.44;36.15;101057.19;4957271;28;20201;-80
2023/07/16 10:46:55;;;;;;;19.52;8.57;;;;;;;34.63;36.76;101077.50;4953258;28;20038;-80
2023/07/16 10:49:29;;;;;;;24.42;8.32;;;;;;;34.83;35.60;101071.03;4960285;28;20564;-81
2023/07/16 10:52:00;;;;;;;12.95;8.35;;;;;;;34.61;37.44;101056.84;4942137;28;20177;-82
2023/07/16 10:54:32;;;;;;;13.02;8.30;;;;;;;34.64;37.96;101046.06;4965572;28;20474;-82
2023/07/16 10:56:59;;;;;;;18.85;7.72;;;;;;;34.71;36.56;101072.47;4972876;28;20049;-81
2023/07/16 10:59:31;;;;;;;14.38;8.40;;;;;;;34.58;38.39;101046.34;4942511;28;20476;-81
2023/07/16 11:02:01;;;;;;;15.02;8.25;;;;;;;34.31;38.51;101042.13;4923962;28;20439;-80
2023/07/16 11:04:35;;;;;;;16.85;8.88;;;;;;;34.16;37.46;101056.81;4937613;28;20291;-81
2023/07/16 11:07:14;;;;;;;12.32;7.85;;;;;;;34.48;38.94;101072.06;4937601;28;20125;-80
2023/07/16 11:09:44;;;;;;;11.85;8.38;;;;;;;34.28;38.34;101053.72;4949398;28;20050;-80
2023/07/16 11:12:22;;;;;;;10.80;7.82;;;;;;;34.46;39.32;101074.28;4941295;28;20254;-81
2023/07/16 11:14:55;;;;;;;18.23;7.93;;;;;;;34.08;38.21;101021.63;4928368;28;20043;-82
2023/07/16 11:17:25;;;;;;;13.20;8.10;;;;;;;34.39;38.97;101066.31;4926380;28;20491;-82
2023/07/16 11:19:54;;;;;;;13.73;7.78;;;;;;;33.96;39.08;100993.53;4920611;28;20203;-81
2023/07/16 11:22:30;;;;;;;15.90;8.57;;;;;;;34.62;39.03;101081.38;4919231;28;20054;-82
2023/07/16 11:25:04;;;;;;;11.35;7.60;;;;;;;34.62;38.18;101053.81;4925835;28;20051;-81